sensor_id;sensor_type;location;lat;lon;timestamp;P1;durP1;ratioP1;P2;durP2;ratioP2
49826;SDS011;35715;51.570;6.036;2022-12-01T00:01:19;41.22;;;25.95;;
49826;SDS011;35715;51.570;6.036;2022-12-01T00:03:44;42.80;;;25.95;;
49826;SDS011;35715;51.570;6.036;2022-12-01T00:06:12;45.15;;;26.73;;
49826;SDS011;35715;51.570;6.036;2022-12-01T00:08:41;41.33;;;25.00;;
49826;SDS011;35715;51.570;6.036;2022-12-01T00:11:31;48.03;;;27.30;;
49826;SDS011;35715;51.570;6.036;2022-12-01T00:13:57;39.53;;;25.30;;
49826;SDS011;35715;51.570;6.036;2022-12-01T00:18:59;45.55;;;28.05;;
49826;SDS011;35715;51.570;6.036;2022-12-01T00:21:24;46.97;;;29.17;;
49826;SDS011;35715;51.570;6.036;2022-12-01T00:23:51;45.50;;;26.88;;
49826;SDS011;35715;51.570;6.036;2022-12-01T00:26:22;46.88;;;27.65;;
49826;SDS011;35715;51.570;6.036;2022-12-01T00:28:49;45.85;;;28.05;;
49826;SDS011;35715;51.570;6.036;2022-12-01T00:31:16;47.28;;;28.00;;
49826;SDS011;35715;51.570;6.036;2022-12-01T00:33:41;49.10;;;26.75;;
49826;SDS011;35715;51.570;6.036;2022-12-01T00:36:13;48.50;;;29.63;;
49826;SDS011;35715;51.570;6.036;2022-12-01T00:38:39;48.05;;;27.08;;
49826;SDS011;35715;51.570;6.036;2022-12-01T00:41:04;51.20;;;29.95;;
49826;SDS011;35715;51.570;6.036;2022-12-01T00:43:30;51.33;;;29.88;;
49826;SDS011;35715;51.570;6.036;2022-12-01T00:45:58;55.97;;;31.67;;
49826;SDS011;35715;51.570;6.036;2022-12-01T00:48:23;55.50;;;30.73;;
49826;SDS011;35715;51.570;6.036;2022-12-01T00:50:49;53.85;;;28.65;;
49826;SDS011;35715;51.570;6.036;2022-12-01T00:53:16;57.97;;;30.83;;
49826;SDS011;35715;51.570;6.036;2022-12-01T00:55:48;59.13;;;34.38;;
49826;SDS011;35715;51.570;6.036;2022-12-01T00:58:14;55.63;;;30.35;;
49826;SDS011;35715;51.570;6.036;2022-12-01T01:00:39;60.30;;;32.28;;
49826;SDS011;35715;51.570;6.036;2022-12-01T01:03:06;55.47;;;30.27;;
49826;SDS011;35715;51.570;6.036;2022-12-01T01:05:43;46.28;;;26.98;;
49826;SDS011;35715;51.570;6.036;2022-12-01T01:08:09;48.50;;;30.17;;
49826;SDS011;35715;51.570;6.036;2022-12-01T01:10:37;51.95;;;28.48;;
49826;SDS011;35715;51.570;6.036;2022-12-01T01:13:03;53.75;;;28.92;;
49826;SDS011;35715;51.570;6.036;2022-12-01T01:15:29;56.72;;;30.48;;
49826;SDS011;35715;51.570;6.036;2022-12-01T01:17:54;49.40;;;29.08;;
49826;SDS011;35715;51.570;6.036;2022-12-01T01:20:19;51.38;;;29.90;;
49826;SDS011;35715;51.570;6.036;2022-12-01T01:22:45;50.15;;;30.75;;
49826;SDS011;35715;51.570;6.036;2022-12-01T01:25:13;54.00;;;32.63;;
49826;SDS011;35715;51.570;6.036;2022-12-01T01:27:39;55.30;;;31.33;;
49826;SDS011;35715;51.570;6.036;2022-12-01T01:30:04;59.03;;;32.95;;
49826;SDS011;35715;51.570;6.036;2022-12-01T01:32:30;55.45;;;31.10;;
49826;SDS011;35715;51.570;6.036;2022-12-01T01:34:56;57.10;;;32.15;;
49826;SDS011;35715;51.570;6.036;2022-12-01T01:37:21;64.10;;;32.53;;
49826;SDS011;35715;51.570;6.036;2022-12-01T01:39:46;57.47;;;32.70;;
49826;SDS011;35715;51.570;6.036;2022-12-01T01:42:12;63.53;;;32.55;;
49826;SDS011;35715;51.570;6.036;2022-12-01T01:44:59;53.70;;;31.50;;
49826;SDS011;35715;51.570;6.036;2022-12-01T01:47:34;59.03;;;30.60;;
49826;SDS011;35715;51.570;6.036;2022-12-01T01:50:04;58.38;;;32.55;;
49826;SDS011;35715;51.570;6.036;2022-12-01T01:52:37;64.82;;;33.35;;
49826;SDS011;35715;51.570;6.036;2022-12-01T01:55:26;58.13;;;33.08;;
49826;SDS011;35715;51.570;6.036;2022-12-01T01:57:53;64.22;;;32.25;;
49826;SDS011;35715;51.570;6.036;2022-12-01T02:00:19;63.22;;;32.03;;
49826;SDS011;35715;51.570;6.036;2022-12-01T02:02:46;64.43;;;32.83;;
49826;SDS011;35715;51.570;6.036;2022-12-01T02:08:35;62.33;;;31.23;;
49826;SDS011;35715;51.570;6.036;2022-12-01T02:11:27;61.90;;;32.05;;
49826;SDS011;35715;51.570;6.036;2022-12-01T02:31:04;75.30;;;33.65;;
49826;SDS011;35715;51.570;6.036;2022-12-01T02:36:35;70.30;;;35.00;;
49826;SDS011;35715;51.570;6.036;2022-12-01T02:39:07;81.88;;;39.25;;
49826;SDS011;35715;51.570;6.036;2022-12-01T02:41:44;71.20;;;35.80;;
49826;SDS011;35715;51.570;6.036;2022-12-01T02:47:24;84.22;;;35.17;;
49826;SDS011;35715;51.570;6.036;2022-12-01T02:49:50;83.22;;;39.20;;
49826;SDS011;35715;51.570;6.036;2022-12-01T02:52:19;87.03;;;38.33;;
49826;SDS011;35715;51.570;6.036;2022-12-01T02:54:47;75.60;;;38.10;;
49826;SDS011;35715;51.570;6.036;2022-12-01T02:57:32;81.68;;;40.22;;
49826;SDS011;35715;51.570;6.036;2022-12-01T02:59:57;76.95;;;37.67;;
49826;SDS011;35715;51.570;6.036;2022-12-01T03:05:54;82.57;;;38.80;;
49826;SDS011;35715;51.570;6.036;2022-12-01T03:08:31;80.90;;;34.78;;
49826;SDS011;35715;51.570;6.036;2022-12-01T03:11:09;84.18;;;35.60;;
49826;SDS011;35715;51.570;6.036;2022-12-01T03:14:05;94.65;;;40.10;;
49826;SDS011;35715;51.570;6.036;2022-12-01T03:16:50;86.18;;;34.75;;
49826;SDS011;35715;51.570;6.036;2022-12-01T03:24:44;98.03;;;38.05;;
49826;SDS011;35715;51.570;6.036;2022-12-01T03:27:25;75.65;;;34.63;;
49826;SDS011;35715;51.570;6.036;2022-12-01T03:29:54;79.15;;;34.70;;
49826;SDS011;35715;51.570;6.036;2022-12-01T03:32:26;90.10;;;39.05;;
49826;SDS011;35715;51.570;6.036;2022-12-01T03:35:00;83.60;;;35.38;;
49826;SDS011;35715;51.570;6.036;2022-12-01T03:37:33;89.18;;;36.75;;
49826;SDS011;35715;51.570;6.036;2022-12-01T03:40:14;87.63;;;35.85;;
49826;SDS011;35715;51.570;6.036;2022-12-01T03:42:44;90.32;;;35.97;;
49826;SDS011;35715;51.570;6.036;2022-12-01T03:48:19;92.05;;;39.00;;
49826;SDS011;35715;51.570;6.036;2022-12-01T03:56:38;89.00;;;36.58;;
49826;SDS011;35715;51.570;6.036;2022-12-01T03:59:10;92.75;;;36.58;;
49826;SDS011;35715;51.570;6.036;2022-12-01T04:01:38;87.15;;;35.15;;
49826;SDS011;35715;51.570;6.036;2022-12-01T04:04:08;80.93;;;39.05;;
49826;SDS011;35715;51.570;6.036;2022-12-01T04:06:36;77.97;;;34.10;;
49826;SDS011;35715;51.570;6.036;2022-12-01T04:09:02;75.97;;;33.95;;
49826;SDS011;35715;51.570;6.036;2022-12-01T04:11:27;79.60;;;33.85;;
49826;SDS011;35715;51.570;6.036;2022-12-01T04:14:12;79.40;;;32.42;;
49826;SDS011;35715;51.570;6.036;2022-12-01T04:16:37;85.22;;;32.67;;
49826;SDS011;35715;51.570;6.036;2022-12-01T04:19:03;75.50;;;32.28;;
49826;SDS011;35715;51.570;6.036;2022-12-01T04:21:28;73.30;;;32.95;;
49826;SDS011;35715;51.570;6.036;2022-12-01T04:23:53;68.97;;;28.15;;
49826;SDS011;35715;51.570;6.036;2022-12-01T04:26:25;65.97;;;28.52;;
49826;SDS011;35715;51.570;6.036;2022-12-01T04:28:54;76.38;;;34.05;;
49826;SDS011;35715;51.570;6.036;2022-12-01T04:31:20;62.17;;;29.38;;
49826;SDS011;35715;51.570;6.036;2022-12-01T04:33:45;74.70;;;32.40;;
49826;SDS011;35715;51.570;6.036;2022-12-01T04:36:11;69.00;;;32.28;;
49826;SDS011;35715;51.570;6.036;2022-12-01T04:38:37;62.70;;;30.05;;
49826;SDS011;35715;51.570;6.036;2022-12-01T04:41:11;82.07;;;32.72;;
49826;SDS011;35715;51.570;6.036;2022-12-01T04:43:38;58.47;;;29.55;;
49826;SDS011;35715;51.570;6.036;2022-12-01T04:46:10;73.60;;;32.17;;
49826;SDS011;35715;51.570;6.036;2022-12-01T04:48:36;55.90;;;26.25;;
49826;SDS011;35715;51.570;6.036;2022-12-01T04:51:03;68.13;;;28.02;;
49826;SDS011;35715;51.570;6.036;2022-12-01T04:53:30;65.50;;;29.80;;
49826;SDS011;35715;51.570;6.036;2022-12-01T04:58:26;64.35;;;31.00;;
49826;SDS011;35715;51.570;6.036;2022-12-01T05:00:52;66.25;;;31.77;;
49826;SDS011;35715;51.570;6.036;2022-12-01T05:03:18;64.18;;;29.42;;
49826;SDS011;35715;51.570;6.036;2022-12-01T05:08:25;62.42;;;30.50;;
49826;SDS011;35715;51.570;6.036;2022-12-01T05:10:53;55.47;;;27.98;;
49826;SDS011;35715;51.570;6.036;2022-12-01T05:13:19;54.88;;;28.25;;
49826;SDS011;35715;51.570;6.036;2022-12-01T05:15:47;52.67;;;28.02;;
49826;SDS011;35715;51.570;6.036;2022-12-01T05:18:13;54.63;;;29.33;;
49826;SDS011;35715;51.570;6.036;2022-12-01T05:20:38;50.17;;;29.15;;
49826;SDS011;35715;51.570;6.036;2022-12-01T05:23:22;54.03;;;27.95;;
49826;SDS011;35715;51.570;6.036;2022-12-01T05:26:00;58.58;;;30.08;;
49826;SDS011;35715;51.570;6.036;2022-12-01T05:28:26;58.65;;;30.58;;
49826;SDS011;35715;51.570;6.036;2022-12-01T05:30:52;49.58;;;26.35;;
49826;SDS011;35715;51.570;6.036;2022-12-01T05:33:18;49.88;;;27.35;;
49826;SDS011;35715;51.570;6.036;2022-12-01T05:35:46;51.42;;;28.80;;
49826;SDS011;35715;51.570;6.036;2022-12-01T05:38:12;48.97;;;24.98;;
49826;SDS011;35715;51.570;6.036;2022-12-01T05:40:38;45.28;;;23.23;;
49826;SDS011;35715;51.570;6.036;2022-12-01T05:43:04;46.17;;;24.08;;
49826;SDS011;35715;51.570;6.036;2022-12-01T05:45:34;43.50;;;23.90;;
49826;SDS011;35715;51.570;6.036;2022-12-01T05:48:00;54.35;;;26.13;;
49826;SDS011;35715;51.570;6.036;2022-12-01T05:50:27;44.22;;;24.60;;
49826;SDS011;35715;51.570;6.036;2022-12-01T05:52:54;44.05;;;24.45;;
49826;SDS011;35715;51.570;6.036;2022-12-01T05:55:21;40.80;;;23.25;;
49826;SDS011;35715;51.570;6.036;2022-12-01T05:57:46;47.28;;;25.50;;
49826;SDS011;35715;51.570;6.036;2022-12-01T06:00:12;47.60;;;26.65;;
49826;SDS011;35715;51.570;6.036;2022-12-01T06:02:39;45.35;;;26.25;;
49826;SDS011;35715;51.570;6.036;2022-12-01T06:07:39;47.35;;;26.67;;
49826;SDS011;35715;51.570;6.036;2022-12-01T06:10:05;52.15;;;27.35;;
49826;SDS011;35715;51.570;6.036;2022-12-01T06:12:33;50.78;;;26.48;;
49826;SDS011;35715;51.570;6.036;2022-12-01T06:15:02;47.55;;;25.70;;
49826;SDS011;35715;51.570;6.036;2022-12-01T06:19:54;45.40;;;24.33;;
49826;SDS011;35715;51.570;6.036;2022-12-01T06:22:19;49.60;;;24.73;;
49826;SDS011;35715;51.570;6.036;2022-12-01T06:24:45;48.75;;;28.10;;
49826;SDS011;35715;51.570;6.036;2022-12-01T06:27:11;50.85;;;28.33;;
49826;SDS011;35715;51.570;6.036;2022-12-01T06:29:36;47.22;;;26.90;;
49826;SDS011;35715;51.570;6.036;2022-12-01T06:32:02;49.55;;;29.05;;
49826;SDS011;35715;51.570;6.036;2022-12-01T06:34:28;45.67;;;27.70;;
49826;SDS011;35715;51.570;6.036;2022-12-01T06:36:54;52.65;;;30.65;;
49826;SDS011;35715;51.570;6.036;2022-12-01T06:39:19;49.58;;;26.50;;
49826;SDS011;35715;51.570;6.036;2022-12-01T06:41:45;46.60;;;27.05;;
49826;SDS011;35715;51.570;6.036;2022-12-01T06:44:10;48.13;;;27.95;;
49826;SDS011;35715;51.570;6.036;2022-12-01T06:49:29;52.40;;;27.92;;
49826;SDS011;35715;51.570;6.036;2022-12-01T06:51:55;53.78;;;26.55;;
49826;SDS011;35715;51.570;6.036;2022-12-01T06:54:20;60.08;;;30.90;;
49826;SDS011;35715;51.570;6.036;2022-12-01T06:56:45;59.55;;;31.27;;
49826;SDS011;35715;51.570;6.036;2022-12-01T06:59:11;48.75;;;29.55;;
49826;SDS011;35715;51.570;6.036;2022-12-01T07:01:36;56.45;;;30.92;;
49826;SDS011;35715;51.570;6.036;2022-12-01T07:04:02;55.90;;;28.58;;
49826;SDS011;35715;51.570;6.036;2022-12-01T07:06:32;51.28;;;29.35;;
49826;SDS011;35715;51.570;6.036;2022-12-01T07:11:23;49.58;;;28.20;;
49826;SDS011;35715;51.570;6.036;2022-12-01T07:13:48;56.10;;;29.38;;
49826;SDS011;35715;51.570;6.036;2022-12-01T07:18:49;51.67;;;28.33;;
49826;SDS011;35715;51.570;6.036;2022-12-01T07:21:16;53.63;;;29.80;;
49826;SDS011;35715;51.570;6.036;2022-12-01T07:23:42;53.40;;;31.02;;
49826;SDS011;35715;51.570;6.036;2022-12-01T07:28:53;46.45;;;26.85;;
49826;SDS011;35715;51.570;6.036;2022-12-01T07:31:18;48.38;;;30.75;;
49826;SDS011;35715;51.570;6.036;2022-12-01T07:33:44;51.55;;;30.52;;
49826;SDS011;35715;51.570;6.036;2022-12-01T07:36:13;55.83;;;31.00;;
49826;SDS011;35715;51.570;6.036;2022-12-01T07:38:38;50.50;;;29.42;;
49826;SDS011;35715;51.570;6.036;2022-12-01T07:41:04;45.42;;;27.23;;
49826;SDS011;35715;51.570;6.036;2022-12-01T07:43:31;45.83;;;27.50;;
49826;SDS011;35715;51.570;6.036;2022-12-01T07:48:51;47.05;;;27.77;;
49826;SDS011;35715;51.570;6.036;2022-12-01T07:51:17;52.03;;;28.40;;
49826;SDS011;35715;51.570;6.036;2022-12-01T07:53:43;48.00;;;28.60;;
49826;SDS011;35715;51.570;6.036;2022-12-01T07:58:53;49.25;;;28.85;;
49826;SDS011;35715;51.570;6.036;2022-12-01T08:01:19;56.53;;;32.72;;
49826;SDS011;35715;51.570;6.036;2022-12-01T08:03:51;56.17;;;29.88;;
49826;SDS011;35715;51.570;6.036;2022-12-01T08:08:49;52.55;;;27.98;;
49826;SDS011;35715;51.570;6.036;2022-12-01T08:11:15;47.90;;;29.90;;
49826;SDS011;35715;51.570;6.036;2022-12-01T08:13:48;49.75;;;27.67;;
49826;SDS011;35715;51.570;6.036;2022-12-01T08:16:18;44.78;;;29.08;;
49826;SDS011;35715;51.570;6.036;2022-12-01T08:18:45;49.10;;;30.33;;
49826;SDS011;35715;51.570;6.036;2022-12-01T08:21:12;49.67;;;28.50;;
49826;SDS011;35715;51.570;6.036;2022-12-01T08:23:40;45.85;;;31.55;;
49826;SDS011;35715;51.570;6.036;2022-12-01T08:26:12;50.97;;;33.90;;
49826;SDS011;35715;51.570;6.036;2022-12-01T08:28:39;42.78;;;29.83;;
49826;SDS011;35715;51.570;6.036;2022-12-01T08:31:19;46.03;;;29.65;;
49826;SDS011;35715;51.570;6.036;2022-12-01T08:33:47;44.75;;;27.40;;
49826;SDS011;35715;51.570;6.036;2022-12-01T08:36:20;43.72;;;29.58;;
49826;SDS011;35715;51.570;6.036;2022-12-01T08:38:50;44.15;;;27.25;;
49826;SDS011;35715;51.570;6.036;2022-12-01T08:41:17;50.60;;;28.83;;
49826;SDS011;35715;51.570;6.036;2022-12-01T08:43:43;49.42;;;29.92;;
49826;SDS011;35715;51.570;6.036;2022-12-01T08:46:09;72.85;;;35.22;;
49826;SDS011;35715;51.570;6.036;2022-12-01T08:48:36;48.45;;;30.75;;
49826;SDS011;35715;51.570;6.036;2022-12-01T08:53:39;52.40;;;32.60;;
49826;SDS011;35715;51.570;6.036;2022-12-01T08:56:14;51.03;;;28.67;;
49826;SDS011;35715;51.570;6.036;2022-12-01T08:58:39;52.08;;;31.42;;
49826;SDS011;35715;51.570;6.036;2022-12-01T09:01:06;53.88;;;33.20;;
49826;SDS011;35715;51.570;6.036;2022-12-01T09:03:33;47.95;;;29.52;;
49826;SDS011;35715;51.570;6.036;2022-12-01T09:06:01;55.38;;;32.35;;
49826;SDS011;35715;51.570;6.036;2022-12-01T09:08:35;54.30;;;31.45;;
49826;SDS011;35715;51.570;6.036;2022-12-01T09:11:02;58.33;;;34.13;;
49826;SDS011;35715;51.570;6.036;2022-12-01T09:13:29;52.10;;;31.13;;
49826;SDS011;35715;51.570;6.036;2022-12-01T09:18:41;57.38;;;33.78;;
49826;SDS011;35715;51.570;6.036;2022-12-01T09:21:11;51.67;;;32.00;;
49826;SDS011;35715;51.570;6.036;2022-12-01T09:26:06;55.20;;;33.55;;
49826;SDS011;35715;51.570;6.036;2022-12-01T09:28:32;59.20;;;34.15;;
49826;SDS011;35715;51.570;6.036;2022-12-01T09:31:07;59.92;;;34.63;;
49826;SDS011;35715;51.570;6.036;2022-12-01T09:33:34;53.03;;;32.28;;
49826;SDS011;35715;51.570;6.036;2022-12-01T09:36:08;57.38;;;35.70;;
49826;SDS011;35715;51.570;6.036;2022-12-01T09:38:34;55.63;;;34.08;;
49826;SDS011;35715;51.570;6.036;2022-12-01T09:41:06;54.30;;;34.22;;
49826;SDS011;35715;51.570;6.036;2022-12-01T09:43:40;54.35;;;32.83;;
49826;SDS011;35715;51.570;6.036;2022-12-01T09:48:50;57.58;;;35.30;;
49826;SDS011;35715;51.570;6.036;2022-12-01T09:51:19;60.33;;;32.97;;
49826;SDS011;35715;51.570;6.036;2022-12-01T09:53:47;64.68;;;33.35;;
49826;SDS011;35715;51.570;6.036;2022-12-01T09:56:20;66.25;;;35.38;;
49826;SDS011;35715;51.570;6.036;2022-12-01T09:58:59;56.53;;;33.53;;
49826;SDS011;35715;51.570;6.036;2022-12-01T10:01:36;54.85;;;34.40;;
49826;SDS011;35715;51.570;6.036;2022-12-01T10:09:30;57.72;;;34.63;;
49826;SDS011;35715;51.570;6.036;2022-12-01T10:12:20;61.30;;;34.70;;
49826;SDS011;35715;51.570;6.036;2022-12-01T10:14:52;61.47;;;34.25;;
49826;SDS011;35715;51.570;6.036;2022-12-01T10:25:57;58.55;;;35.95;;
49826;SDS011;35715;51.570;6.036;2022-12-01T10:31:27;64.55;;;34.35;;
49826;SDS011;35715;51.570;6.036;2022-12-01T10:34:01;51.38;;;33.25;;
49826;SDS011;35715;51.570;6.036;2022-12-01T10:36:40;54.38;;;32.03;;
49826;SDS011;35715;51.570;6.036;2022-12-01T10:39:06;54.72;;;34.78;;
49826;SDS011;35715;51.570;6.036;2022-12-01T10:41:38;59.65;;;32.50;;
49826;SDS011;35715;51.570;6.036;2022-12-01T10:44:04;55.95;;;32.45;;
49826;SDS011;35715;51.570;6.036;2022-12-01T10:49:20;54.05;;;32.42;;
49826;SDS011;35715;51.570;6.036;2022-12-01T10:51:59;56.65;;;31.67;;
49826;SDS011;35715;51.570;6.036;2022-12-01T10:54:35;52.42;;;30.73;;
49826;SDS011;35715;51.570;6.036;2022-12-01T10:57:02;54.88;;;31.65;;
49826;SDS011;35715;51.570;6.036;2022-12-01T10:59:31;54.80;;;35.25;;
49826;SDS011;35715;51.570;6.036;2022-12-01T11:02:00;59.20;;;34.55;;
49826;SDS011;35715;51.570;6.036;2022-12-01T11:04:30;53.03;;;33.55;;
49826;SDS011;35715;51.570;6.036;2022-12-01T11:07:00;56.22;;;34.60;;
49826;SDS011;35715;51.570;6.036;2022-12-01T11:09:27;57.88;;;36.45;;
49826;SDS011;35715;51.570;6.036;2022-12-01T11:12:00;46.55;;;32.05;;
49826;SDS011;35715;51.570;6.036;2022-12-01T11:14:42;54.42;;;33.33;;
49826;SDS011;35715;51.570;6.036;2022-12-01T11:25:40;45.15;;;30.08;;
49826;SDS011;35715;51.570;6.036;2022-12-01T11:28:05;53.28;;;33.22;;
49826;SDS011;35715;51.570;6.036;2022-12-01T11:30:43;51.33;;;32.60;;
49826;SDS011;35715;51.570;6.036;2022-12-01T11:33:08;53.72;;;32.75;;
49826;SDS011;35715;51.570;6.036;2022-12-01T11:35:47;53.40;;;34.95;;
49826;SDS011;35715;51.570;6.036;2022-12-01T11:38:19;55.80;;;34.00;;
49826;SDS011;35715;51.570;6.036;2022-12-01T11:40:54;57.03;;;34.65;;
49826;SDS011;35715;51.570;6.036;2022-12-01T11:45:59;56.17;;;33.53;;
49826;SDS011;35715;51.570;6.036;2022-12-01T11:48:29;53.45;;;31.83;;
49826;SDS011;35715;51.570;6.036;2022-12-01T11:51:06;48.63;;;29.20;;
49826;SDS011;35715;51.570;6.036;2022-12-01T11:53:43;52.95;;;32.80;;
49826;SDS011;35715;51.570;6.036;2022-12-01T11:56:26;51.95;;;33.17;;
49826;SDS011;35715;51.570;6.036;2022-12-01T11:59:04;52.42;;;32.03;;
49826;SDS011;35715;51.570;6.036;2022-12-01T12:10:13;46.75;;;29.38;;
49826;SDS011;35715;51.570;6.036;2022-12-01T12:24:19;57.85;;;36.25;;
49826;SDS011;35715;51.570;6.036;2022-12-01T12:49:43;62.60;;;34.35;;
49826;SDS011;35715;51.570;6.036;2022-12-01T12:52:24;51.50;;;32.78;;
49826;SDS011;35715;51.570;6.036;2022-12-01T12:57:56;51.90;;;33.42;;
49826;SDS011;35715;51.570;6.036;2022-12-01T13:00:26;59.42;;;36.45;;
49826;SDS011;35715;51.570;6.036;2022-12-01T13:02:57;51.25;;;32.65;;
49826;SDS011;35715;51.570;6.036;2022-12-01T13:05:49;55.83;;;35.22;;
49826;SDS011;35715;51.570;6.036;2022-12-01T13:10:52;58.80;;;36.25;;
49826;SDS011;35715;51.570;6.036;2022-12-01T13:13:34;59.38;;;32.92;;
49826;SDS011;35715;51.570;6.036;2022-12-01T13:16:09;59.38;;;34.90;;
49826;SDS011;35715;51.570;6.036;2022-12-01T13:18:43;60.58;;;35.22;;
49826;SDS011;35715;51.570;6.036;2022-12-01T13:21:18;54.67;;;33.58;;
49826;SDS011;35715;51.570;6.036;2022-12-01T13:23:45;54.92;;;33.95;;
49826;SDS011;35715;51.570;6.036;2022-12-01T13:26:13;59.65;;;36.65;;
49826;SDS011;35715;51.570;6.036;2022-12-01T13:28:43;60.20;;;35.08;;
49826;SDS011;35715;51.570;6.036;2022-12-01T13:31:13;59.08;;;36.42;;
49826;SDS011;35715;51.570;6.036;2022-12-01T13:33:52;65.50;;;38.95;;
49826;SDS011;35715;51.570;6.036;2022-12-01T13:39:17;61.05;;;36.33;;
49826;SDS011;35715;51.570;6.036;2022-12-01T13:41:45;61.13;;;36.63;;
49826;SDS011;35715;51.570;6.036;2022-12-01T13:44:25;55.60;;;34.90;;
49826;SDS011;35715;51.570;6.036;2022-12-01T13:57:38;58.47;;;36.10;;
49826;SDS011;35715;51.570;6.036;2022-12-01T14:02:33;53.72;;;33.45;;
49826;SDS011;35715;51.570;6.036;2022-12-01T14:08:02;52.58;;;30.75;;
49826;SDS011;35715;51.570;6.036;2022-12-01T14:13:26;48.47;;;29.77;;
49826;SDS011;35715;51.570;6.036;2022-12-01T14:15:57;46.33;;;29.15;;
49826;SDS011;35715;51.570;6.036;2022-12-01T14:21:38;50.65;;;30.33;;
49826;SDS011;35715;51.570;6.036;2022-12-01T14:24:06;45.50;;;30.50;;
49826;SDS011;35715;51.570;6.036;2022-12-01T14:29:22;46.80;;;28.70;;
49826;SDS011;35715;51.570;6.036;2022-12-01T14:34:19;39.67;;;28.48;;
49826;SDS011;35715;51.570;6.036;2022-12-01T14:37:04;46.03;;;28.88;;
49826;SDS011;35715;51.570;6.036;2022-12-01T14:39:34;41.22;;;28.08;;
49826;SDS011;35715;51.570;6.036;2022-12-01T14:42:14;36.95;;;26.05;;
49826;SDS011;35715;51.570;6.036;2022-12-01T14:45:14;38.03;;;25.25;;
49826;SDS011;35715;51.570;6.036;2022-12-01T14:47:46;31.95;;;23.00;;
49826;SDS011;35715;51.570;6.036;2022-12-01T14:50:21;36.72;;;25.23;;
49826;SDS011;35715;51.570;6.036;2022-12-01T14:52:53;35.95;;;22.02;;
49826;SDS011;35715;51.570;6.036;2022-12-01T14:55:28;34.55;;;23.05;;
49826;SDS011;35715;51.570;6.036;2022-12-01T14:58:00;39.25;;;25.67;;
49826;SDS011;35715;51.570;6.036;2022-12-01T15:02:59;32.78;;;21.88;;
49826;SDS011;35715;51.570;6.036;2022-12-01T15:05:31;38.30;;;25.10;;
49826;SDS011;35715;51.570;6.036;2022-12-01T15:08:13;41.78;;;26.70;;
49826;SDS011;35715;51.570;6.036;2022-12-01T15:10:47;33.58;;;24.17;;
49826;SDS011;35715;51.570;6.036;2022-12-01T15:13:25;37.38;;;24.88;;
49826;SDS011;35715;51.570;6.036;2022-12-01T15:18:48;42.80;;;25.35;;
49826;SDS011;35715;51.570;6.036;2022-12-01T15:21:32;38.65;;;23.35;;
49826;SDS011;35715;51.570;6.036;2022-12-01T15:26:27;37.42;;;24.70;;
49826;SDS011;35715;51.570;6.036;2022-12-01T15:31:39;40.25;;;23.10;;
49826;SDS011;35715;51.570;6.036;2022-12-01T15:34:07;35.28;;;21.88;;
49826;SDS011;35715;51.570;6.036;2022-12-01T15:36:39;39.30;;;23.55;;
49826;SDS011;35715;51.570;6.036;2022-12-01T15:39:05;35.85;;;20.50;;
49826;SDS011;35715;51.570;6.036;2022-12-01T15:41:39;41.00;;;23.65;;
49826;SDS011;35715;51.570;6.036;2022-12-01T15:44:16;35.53;;;23.52;;
49826;SDS011;35715;51.570;6.036;2022-12-01T15:46:46;36.75;;;23.98;;
49826;SDS011;35715;51.570;6.036;2022-12-01T15:49:25;41.35;;;24.52;;
49826;SDS011;35715;51.570;6.036;2022-12-01T15:51:54;37.10;;;23.27;;
49826;SDS011;35715;51.570;6.036;2022-12-01T15:54:28;38.15;;;22.80;;
49826;SDS011;35715;51.570;6.036;2022-12-01T15:59:46;34.38;;;22.23;;
49826;SDS011;35715;51.570;6.036;2022-12-01T16:05:14;40.05;;;23.10;;
49826;SDS011;35715;51.570;6.036;2022-12-01T16:07:37;39.72;;;23.38;;
49826;SDS011;35715;51.570;6.036;2022-12-01T16:10:03;33.30;;;21.95;;
49826;SDS011;35715;51.570;6.036;2022-12-01T16:12:30;38.08;;;24.63;;
49826;SDS011;35715;51.570;6.036;2022-12-01T16:15:15;44.72;;;23.20;;
49826;SDS011;35715;51.570;6.036;2022-12-01T16:17:44;40.55;;;23.60;;
49826;SDS011;35715;51.570;6.036;2022-12-01T16:20:24;45.00;;;24.38;;
49826;SDS011;35715;51.570;6.036;2022-12-01T16:23:24;35.67;;;21.67;;
49826;SDS011;35715;51.570;6.036;2022-12-01T16:25:52;40.15;;;22.50;;
49826;SDS011;35715;51.570;6.036;2022-12-01T16:28:22;37.15;;;21.23;;
49826;SDS011;35715;51.570;6.036;2022-12-01T16:33:14;38.03;;;21.23;;
49826;SDS011;35715;51.570;6.036;2022-12-01T16:38:11;34.65;;;20.98;;
49826;SDS011;35715;51.570;6.036;2022-12-01T16:40:45;36.17;;;22.13;;
49826;SDS011;35715;51.570;6.036;2022-12-01T16:43:15;30.55;;;19.00;;
49826;SDS011;35715;51.570;6.036;2022-12-01T16:48:19;35.17;;;21.55;;
49826;SDS011;35715;51.570;6.036;2022-12-01T16:50:44;37.42;;;21.58;;
49826;SDS011;35715;51.570;6.036;2022-12-01T16:53:13;34.83;;;21.88;;
49826;SDS011;35715;51.570;6.036;2022-12-01T16:58:11;35.45;;;21.33;;
49826;SDS011;35715;51.570;6.036;2022-12-01T17:00:37;46.33;;;23.40;;
49826;SDS011;35715;51.570;6.036;2022-12-01T17:03:03;40.70;;;23.63;;
49826;SDS011;35715;51.570;6.036;2022-12-01T17:05:31;32.78;;;21.83;;
49826;SDS011;35715;51.570;6.036;2022-12-01T17:07:57;36.00;;;22.63;;
49826;SDS011;35715;51.570;6.036;2022-12-01T17:10:23;33.25;;;21.27;;
49826;SDS011;35715;51.570;6.036;2022-12-01T17:12:49;39.72;;;21.42;;
49826;SDS011;35715;51.570;6.036;2022-12-01T17:15:15;41.20;;;21.88;;
49826;SDS011;35715;51.570;6.036;2022-12-01T17:17:41;32.25;;;20.52;;
49826;SDS011;35715;51.570;6.036;2022-12-01T17:20:07;29.60;;;19.65;;
49826;SDS011;35715;51.570;6.036;2022-12-01T17:22:33;38.33;;;22.73;;
49826;SDS011;35715;51.570;6.036;2022-12-01T17:25:00;36.85;;;23.15;;
49826;SDS011;35715;51.570;6.036;2022-12-01T17:27:26;32.47;;;21.08;;
49826;SDS011;35715;51.570;6.036;2022-12-01T17:29:52;36.70;;;21.85;;
49826;SDS011;35715;51.570;6.036;2022-12-01T17:32:18;36.58;;;22.27;;
49826;SDS011;35715;51.570;6.036;2022-12-01T17:34:44;36.90;;;22.20;;
49826;SDS011;35715;51.570;6.036;2022-12-01T17:37:10;35.45;;;23.05;;
49826;SDS011;35715;51.570;6.036;2022-12-01T17:39:36;32.28;;;20.60;;
49826;SDS011;35715;51.570;6.036;2022-12-01T17:42:02;33.90;;;20.92;;
49826;SDS011;35715;51.570;6.036;2022-12-01T17:44:28;33.17;;;21.52;;
49826;SDS011;35715;51.570;6.036;2022-12-01T17:47:06;31.65;;;19.75;;
49826;SDS011;35715;51.570;6.036;2022-12-01T17:49:33;34.42;;;19.98;;
49826;SDS011;35715;51.570;6.036;2022-12-01T17:51:59;34.72;;;21.15;;
49826;SDS011;35715;51.570;6.036;2022-12-01T17:54:24;36.05;;;22.10;;
49826;SDS011;35715;51.570;6.036;2022-12-01T17:56:57;32.35;;;20.48;;
49826;SDS011;35715;51.570;6.036;2022-12-01T17:59:22;33.67;;;22.50;;
49826;SDS011;35715;51.570;6.036;2022-12-01T18:01:48;41.95;;;22.08;;
49826;SDS011;35715;51.570;6.036;2022-12-01T18:04:13;36.08;;;20.58;;
49826;SDS011;35715;51.570;6.036;2022-12-01T18:06:44;44.50;;;22.23;;
49826;SDS011;35715;51.570;6.036;2022-12-01T18:09:09;32.55;;;21.33;;
49826;SDS011;35715;51.570;6.036;2022-12-01T18:11:34;33.92;;;21.05;;
49826;SDS011;35715;51.570;6.036;2022-12-01T18:14:00;36.95;;;22.50;;
49826;SDS011;35715;51.570;6.036;2022-12-01T18:16:26;33.92;;;22.25;;
49826;SDS011;35715;51.570;6.036;2022-12-01T18:18:55;38.30;;;23.15;;